sensor_id;sensor_type;location;lat;lon;timestamp;P1;durP1;ratioP1;P2;durP2;ratioP2
13075;SDS011;6604;52.484;13.330;2022-12-18T07:48:23;32.83;;;9.70;;
13075;SDS011;6604;52.484;13.330;2022-12-18T07:50:50;22.37;;;9.30;;
13075;SDS011;6604;52.484;13.330;2022-12-18T07:53:16;28.97;;;10.57;;
13075;SDS011;6604;52.484;13.330;2022-12-18T07:55:43;26.20;;;10.03;;
13075;SDS011;6604;52.484;13.330;2022-12-18T07:58:09;23.70;;;8.77;;
13075;SDS011;6604;52.484;13.330;2022-12-18T08:00:36;29.13;;;10.03;;
13075;SDS011;6604;52.484;13.330;2022-12-18T08:03:02;23.93;;;9.50;;
13075;SDS011;6604;52.484;13.330;2022-12-18T08:05:30;28.87;;;11.23;;
13075;SDS011;6604;52.484;13.330;2022-12-18T08:07:57;24.33;;;9.53;;
13075;SDS011;6604;52.484;13.330;2022-12-18T08:10:24;28.57;;;10.40;;
13075;SDS011;6604;52.484;13.330;2022-12-18T08:12:50;34.37;;;11.30;;
13075;SDS011;6604;52.484;13.330;2022-12-18T08:15:18;24.97;;;10.20;;
13075;SDS011;6604;52.484;13.330;2022-12-18T08:17:44;37.83;;;11.27;;
13075;SDS011;6604;52.484;13.330;2022-12-18T08:20:11;28.83;;;10.07;;
13075;SDS011;6604;52.484;13.330;2022-12-18T08:22:40;29.13;;;11.30;;
13075;SDS011;6604;52.484;13.330;2022-12-18T08:25:07;28.47;;;11.03;;
13075;SDS011;6604;52.484;13.330;2022-12-18T08:27:33;29.00;;;10.53;;
13075;SDS011;6604;52.484;13.330;2022-12-18T08:30:00;28.63;;;12.13;;
13075;SDS011;6604;52.484;13.330;2022-12-18T08:32:27;24.97;;;9.67;;
13075;SDS011;6604;52.484;13.330;2022-12-18T08:34:54;31.40;;;10.53;;
13075;SDS011;6604;52.484;13.330;2022-12-18T08:37:20;31.90;;;10.70;;
13075;SDS011;6604;52.484;13.330;2022-12-18T08:39:48;29.27;;;10.23;;
13075;SDS011;6604;52.484;13.330;2022-12-18T08:42:14;30.97;;;10.37;;
13075;SDS011;6604;52.484;13.330;2022-12-18T08:44:58;31.87;;;10.47;;
13075;SDS011;6604;52.484;13.330;2022-12-18T08:47:25;30.53;;;11.37;;
13075;SDS011;6604;52.484;13.330;2022-12-18T08:49:52;29.67;;;10.47;;
13075;SDS011;6604;52.484;13.330;2022-12-18T08:52:18;27.93;;;10.30;;
13075;SDS011;6604;52.484;13.330;2022-12-18T08:54:49;23.80;;;9.57;;
13075;SDS011;6604;52.484;13.330;2022-12-18T08:57:16;30.83;;;11.63;;
13075;SDS011;6604;52.484;13.330;2022-12-18T08:59:43;25.13;;;10.07;;
13075;SDS011;6604;52.484;13.330;2022-12-18T09:02:09;23.67;;;9.97;;
13075;SDS011;6604;52.484;13.330;2022-12-18T09:04:36;29.73;;;10.47;;
13075;SDS011;6604;52.484;13.330;2022-12-18T09:07:02;28.20;;;11.03;;
13075;SDS011;6604;52.484;13.330;2022-12-18T09:09:29;24.40;;;10.00;;
13075;SDS011;6604;52.484;13.330;2022-12-18T09:11:57;31.67;;;10.80;;
13075;SDS011;6604;52.484;13.330;2022-12-18T09:14:23;30.40;;;10.97;;
13075;SDS011;6604;52.484;13.330;2022-12-18T09:16:50;25.70;;;10.83;;
13075;SDS011;6604;52.484;13.330;2022-12-18T09:19:16;28.20;;;10.97;;
13075;SDS011;6604;52.484;13.330;2022-12-18T09:21:43;25.57;;;9.20;;
13075;SDS011;6604;52.484;13.330;2022-12-18T09:24:11;27.47;;;10.43;;
13075;SDS011;6604;52.484;13.330;2022-12-18T09:26:38;23.97;;;10.03;;
13075;SDS011;6604;52.484;13.330;2022-12-18T09:29:06;25.53;;;9.87;;
13075;SDS011;6604;52.484;13.330;2022-12-18T09:31:33;26.43;;;10.03;;
13075;SDS011;6604;52.484;13.330;2022-12-18T09:34:00;27.73;;;9.90;;
13075;SDS011;6604;52.484;13.330;2022-12-18T09:36:27;26.33;;;9.43;;
13075;SDS011;6604;52.484;13.330;2022-12-18T09:38:53;23.77;;;10.10;;
13075;SDS011;6604;52.484;13.330;2022-12-18T09:41:26;26.17;;;9.40;;
13075;SDS011;6604;52.484;13.330;2022-12-18T09:43:53;24.50;;;9.33;;
13075;SDS011;6604;52.484;13.330;2022-12-18T09:46:23;25.03;;;9.87;;
13075;SDS011;6604;52.484;13.330;2022-12-18T09:48:52;25.10;;;10.20;;
13075;SDS011;6604;52.484;13.330;2022-12-18T09:51:22;27.63;;;10.90;;
13075;SDS011;6604;52.484;13.330;2022-12-18T09:53:50;25.90;;;9.73;;
13075;SDS011;6604;52.484;13.330;2022-12-18T09:56:18;27.03;;;10.23;;
13075;SDS011;6604;52.484;13.330;2022-12-18T09:58:49;26.37;;;10.53;;
13075;SDS011;6604;52.484;13.330;2022-12-18T10:01:20;26.80;;;10.00;;
13075;SDS011;6604;52.484;13.330;2022-12-18T10:03:50;24.17;;;9.27;;
13075;SDS011;6604;52.484;13.330;2022-12-18T10:06:32;25.00;;;8.40;;
13075;SDS011;6604;52.484;13.330;2022-12-18T10:09:01;32.53;;;10.70;;
13075;SDS011;6604;52.484;13.330;2022-12-18T10:11:34;23.87;;;10.83;;
13075;SDS011;6604;52.484;13.330;2022-12-18T10:14:08;25.83;;;10.00;;
13075;SDS011;6604;52.484;13.330;2022-12-18T10:16:37;29.57;;;10.17;;
13075;SDS011;6604;52.484;13.330;2022-12-18T10:19:16;22.87;;;9.00;;
13075;SDS011;6604;52.484;13.330;2022-12-18T10:21:45;25.57;;;9.40;;
13075;SDS011;6604;52.484;13.330;2022-12-18T10:24:17;23.13;;;9.43;;
13075;SDS011;6604;52.484;13.330;2022-12-18T10:26:46;26.93;;;8.50;;
13075;SDS011;6604;52.484;13.330;2022-12-18T10:29:14;27.90;;;10.33;;
13075;SDS011;6604;52.484;13.330;2022-12-18T10:31:41;22.00;;;9.20;;
13075;SDS011;6604;52.484;13.330;2022-12-18T10:34:08;25.30;;;9.30;;
13075;SDS011;6604;52.484;13.330;2022-12-18T10:36:37;27.90;;;10.13;;
13075;SDS011;6604;52.484;13.330;2022-12-18T10:39:13;27.23;;;9.57;;
13075;SDS011;6604;52.484;13.330;2022-12-18T10:41:40;23.80;;;9.70;;
13075;SDS011;6604;52.484;13.330;2022-12-18T10:44:12;29.10;;;9.77;;
13075;SDS011;6604;52.484;13.330;2022-12-18T10:46:39;30.63;;;10.67;;
13075;SDS011;6604;52.484;13.330;2022-12-18T10:49:17;25.50;;;10.77;;
13075;SDS011;6604;52.484;13.330;2022-12-18T10:51:46;25.60;;;10.00;;
13075;SDS011;6604;52.484;13.330;2022-12-18T10:54:14;26.13;;;10.00;;
13075;SDS011;6604;52.484;13.330;2022-12-18T10:56:42;27.20;;;10.17;;
13075;SDS011;6604;52.484;13.330;2022-12-18T10:59:10;25.30;;;10.87;;
13075;SDS011;6604;52.484;13.330;2022-12-18T11:01:47;24.27;;;9.50;;
13075;SDS011;6604;52.484;13.330;2022-12-18T11:04:16;28.10;;;9.83;;
13075;SDS011;6604;52.484;13.330;2022-12-18T11:06:53;24.40;;;10.13;;
13075;SDS011;6604;52.484;13.330;2022-12-18T11:09:21;26.13;;;9.13;;
13075;SDS011;6604;52.484;13.330;2022-12-18T11:11:48;29.70;;;10.80;;
13075;SDS011;6604;52.484;13.330;2022-12-18T11:14:18;27.37;;;10.30;;
13075;SDS011;6604;52.484;13.330;2022-12-18T11:16:46;27.20;;;9.90;;
13075;SDS011;6604;52.484;13.330;2022-12-18T11:19:17;25.53;;;9.83;;
13075;SDS011;6604;52.484;13.330;2022-12-18T11:21:45;26.97;;;10.03;;
13075;SDS011;6604;52.484;13.330;2022-12-18T11:24:17;28.77;;;9.80;;
13075;SDS011;6604;52.484;13.330;2022-12-18T11:26:45;24.13;;;10.47;;
13075;SDS011;6604;52.484;13.330;2022-12-18T11:29:15;27.27;;;10.53;;
13075;SDS011;6604;52.484;13.330;2022-12-18T11:31:42;23.20;;;9.33;;
13075;SDS011;6604;52.484;13.330;2022-12-18T11:34:10;29.57;;;10.37;;
13075;SDS011;6604;52.484;13.330;2022-12-18T11:36:39;25.60;;;9.30;;
13075;SDS011;6604;52.484;13.330;2022-12-18T11:39:09;27.10;;;9.83;;
13075;SDS011;6604;52.484;13.330;2022-12-18T11:41:41;27.73;;;10.30;;
13075;SDS011;6604;52.484;13.330;2022-12-18T11:44:31;24.97;;;9.87;;
13075;SDS011;6604;52.484;13.330;2022-12-18T11:47:03;28.77;;;10.33;;
13075;SDS011;6604;52.484;13.330;2022-12-18T11:49:32;28.63;;;9.13;;
13075;SDS011;6604;52.484;13.330;2022-12-18T11:52:00;29.77;;;10.37;;
13075;SDS011;6604;52.484;13.330;2022-12-18T11:54:27;25.47;;;10.20;;
13075;SDS011;6604;52.484;13.330;2022-12-18T11:56:58;25.73;;;11.13;;
13075;SDS011;6604;52.484;13.330;2022-12-18T11:59:30;26.90;;;10.80;;
13075;SDS011;6604;52.484;13.330;2022-12-18T12:02:01;23.17;;;9.83;;
13075;SDS011;6604;52.484;13.330;2022-12-18T12:04:56;23.53;;;10.00;;
13075;SDS011;6604;52.484;13.330;2022-12-18T12:07:31;21.90;;;9.20;;
13075;SDS011;6604;52.484;13.330;2022-12-18T12:10:03;24.93;;;8.67;;
13075;SDS011;6604;52.484;13.330;2022-12-18T12:12:38;24.27;;;9.80;;
13075;SDS011;6604;52.484;13.330;2022-12-18T12:15:13;30.00;;;9.77;;
13075;SDS011;6604;52.484;13.330;2022-12-18T12:17:44;26.27;;;10.07;;
13075;SDS011;6604;52.484;13.330;2022-12-18T12:20:13;26.37;;;10.30;;
13075;SDS011;6604;52.484;13.330;2022-12-18T12:22:42;31.67;;;10.00;;
13075;SDS011;6604;52.484;13.330;2022-12-18T12:25:18;24.70;;;10.30;;
13075;SDS011;6604;52.484;13.330;2022-12-18T12:27:50;28.60;;;10.67;;
13075;SDS011;6604;52.484;13.330;2022-12-18T12:30:21;24.40;;;9.40;;
13075;SDS011;6604;52.484;13.330;2022-12-18T12:32:59;24.17;;;9.27;;
13075;SDS011;6604;52.484;13.330;2022-12-18T12:35:30;28.70;;;10.43;;
13075;SDS011;6604;52.484;13.330;2022-12-18T12:38:04;25.77;;;8.87;;
13075;SDS011;6604;52.484;13.330;2022-12-18T12:40:33;22.67;;;10.20;;
13075;SDS011;6604;52.484;13.330;2022-12-18T12:43:02;24.67;;;9.53;;
13075;SDS011;6604;52.484;13.330;2022-12-18T12:45:41;20.07;;;8.03;;
13075;SDS011;6604;52.484;13.330;2022-12-18T12:48:11;24.67;;;9.43;;
13075;SDS011;6604;52.484;13.330;2022-12-18T12:50:41;24.90;;;9.80;;
13075;SDS011;6604;52.484;13.330;2022-12-18T12:53:09;27.50;;;10.47;;
13075;SDS011;6604;52.484;13.330;2022-12-18T12:55:40;23.07;;;9.87;;
13075;SDS011;6604;52.484;13.330;2022-12-18T12:58:11;23.10;;;9.87;;
13075;SDS011;6604;52.484;13.330;2022-12-18T13:00:41;22.87;;;9.33;;
13075;SDS011;6604;52.484;13.330;2022-12-18T13:03:12;17.60;;;8.93;;
13075;SDS011;6604;52.484;13.330;2022-12-18T13:05:41;26.23;;;10.40;;
13075;SDS011;6604;52.484;13.330;2022-12-18T13:08:10;22.03;;;10.07;;
13075;SDS011;6604;52.484;13.330;2022-12-18T13:10:37;27.20;;;10.43;;
13075;SDS011;6604;52.484;13.330;2022-12-18T13:13:05;22.33;;;10.20;;
13075;SDS011;6604;52.484;13.330;2022-12-18T13:15:35;22.97;;;9.90;;
13075;SDS011;6604;52.484;13.330;2022-12-18T13:18:14;24.27;;;11.00;;
13075;SDS011;6604;52.484;13.330;2022-12-18T13:20:41;20.90;;;8.70;;
13075;SDS011;6604;52.484;13.330;2022-12-18T13:23:28;21.77;;;9.93;;
13075;SDS011;6604;52.484;13.330;2022-12-18T13:25:55;21.23;;;10.10;;
13075;SDS011;6604;52.484;13.330;2022-12-18T13:28:23;27.73;;;11.23;;
13075;SDS011;6604;52.484;13.330;2022-12-18T13:30:53;22.80;;;10.07;;
13075;SDS011;6604;52.484;13.330;2022-12-18T13:36:25;24.60;;;10.00;;
13075;SDS011;6604;52.484;13.330;2022-12-18T13:41:52;18.70;;;9.33;;
13075;SDS011;6604;52.484;13.330;2022-12-18T13:44:24;23.37;;;10.83;;
13075;SDS011;6604;52.484;13.330;2022-12-18T13:46:55;23.07;;;10.40;;
13075;SDS011;6604;52.484;13.330;2022-12-18T13:49:22;21.77;;;10.73;;
13075;SDS011;6604;52.484;13.330;2022-12-18T13:51:50;26.43;;;11.03;;
13075;SDS011;6604;52.484;13.330;2022-12-18T13:54:18;23.00;;;10.37;;
13075;SDS011;6604;52.484;13.330;2022-12-18T13:56:46;23.77;;;10.80;;
13075;SDS011;6604;52.484;13.330;2022-12-18T13:59:14;26.57;;;10.87;;
13075;SDS011;6604;52.484;13.330;2022-12-18T14:01:42;26.63;;;11.27;;
13075;SDS011;6604;52.484;13.330;2022-12-18T14:04:11;24.40;;;10.77;;
13075;SDS011;6604;52.484;13.330;2022-12-18T14:06:37;23.87;;;10.73;;
13075;SDS011;6604;52.484;13.330;2022-12-18T14:09:04;22.63;;;10.03;;
13075;SDS011;6604;52.484;13.330;2022-12-18T14:11:31;24.70;;;10.47;;
13075;SDS011;6604;52.484;13.330;2022-12-18T14:13:58;24.57;;;10.53;;
13075;SDS011;6604;52.484;13.330;2022-12-18T14:16:25;21.30;;;10.93;;
13075;SDS011;6604;52.484;13.330;2022-12-18T14:18:53;31.03;;;12.00;;
13075;SDS011;6604;52.484;13.330;2022-12-18T14:21:25;26.73;;;11.67;;
13075;SDS011;6604;52.484;13.330;2022-12-18T14:24:04;29.50;;;12.83;;
13075;SDS011;6604;52.484;13.330;2022-12-18T14:26:32;35.47;;;14.07;;
13075;SDS011;6604;52.484;13.330;2022-12-18T14:28:59;32.80;;;14.13;;
13075;SDS011;6604;52.484;13.330;2022-12-18T14:31:27;30.33;;;12.70;;
13075;SDS011;6604;52.484;13.330;2022-12-18T14:33:54;36.53;;;14.43;;
13075;SDS011;6604;52.484;13.330;2022-12-18T14:36:21;24.97;;;11.60;;
13075;SDS011;6604;52.484;13.330;2022-12-18T14:38:49;32.53;;;12.63;;
13075;SDS011;6604;52.484;13.330;2022-12-18T14:41:17;33.23;;;13.17;;
13075;SDS011;6604;52.484;13.330;2022-12-18T14:43:44;32.13;;;13.80;;
13075;SDS011;6604;52.484;13.330;2022-12-18T14:46:25;30.47;;;13.40;;
13075;SDS011;6604;52.484;13.330;2022-12-18T14:48:53;25.30;;;12.60;;
13075;SDS011;6604;52.484;13.330;2022-12-18T14:51:20;25.27;;;12.40;;
13075;SDS011;6604;52.484;13.330;2022-12-18T14:53:47;33.23;;;12.63;;
13075;SDS011;6604;52.484;13.330;2022-12-18T14:56:17;25.27;;;11.97;;
13075;SDS011;6604;52.484;13.330;2022-12-18T14:58:45;26.30;;;11.37;;
13075;SDS011;6604;52.484;13.330;2022-12-18T15:01:17;27.13;;;11.27;;
13075;SDS011;6604;52.484;13.330;2022-12-18T15:03:44;23.07;;;11.27;;
13075;SDS011;6604;52.484;13.330;2022-12-18T15:06:17;25.70;;;11.57;;
13075;SDS011;6604;52.484;13.330;2022-12-18T15:08:48;24.77;;;11.20;;
13075;SDS011;6604;52.484;13.330;2022-12-18T15:17:06;21.13;;;10.33;;
13075;SDS011;6604;52.484;13.330;2022-12-18T15:19:37;21.53;;;9.30;;
13075;SDS011;6604;52.484;13.330;2022-12-18T15:22:04;20.90;;;9.57;;
13075;SDS011;6604;52.484;13.330;2022-12-18T15:24:38;19.30;;;9.30;;
13075;SDS011;6604;52.484;13.330;2022-12-18T15:27:05;22.97;;;10.50;;
13075;SDS011;6604;52.484;13.330;2022-12-18T15:29:58;22.13;;;9.43;;
13075;SDS011;6604;52.484;13.330;2022-12-18T15:32:27;16.97;;;8.33;;
13075;SDS011;6604;52.484;13.330;2022-12-18T15:35:02;19.30;;;9.80;;
13075;SDS011;6604;52.484;13.330;2022-12-18T15:37:28;18.90;;;8.37;;
13075;SDS011;6604;52.484;13.330;2022-12-18T15:39:55;19.07;;;8.20;;
13075;SDS011;6604;52.484;13.330;2022-12-18T15:42:21;17.77;;;7.90;;
13075;SDS011;6604;52.484;13.330;2022-12-18T15:45:07;20.17;;;9.07;;
13075;SDS011;6604;52.484;13.330;2022-12-18T15:47:36;18.73;;;9.10;;
13075;SDS011;6604;52.484;13.330;2022-12-18T15:50:03;18.83;;;9.47;;
13075;SDS011;6604;52.484;13.330;2022-12-18T15:52:29;17.70;;;9.27;;
13075;SDS011;6604;52.484;13.330;2022-12-18T15:54:56;18.57;;;8.53;;
13075;SDS011;6604;52.484;13.330;2022-12-18T15:57:40;14.17;;;8.23;;
13075;SDS011;6604;52.484;13.330;2022-12-18T16:00:11;17.53;;;8.83;;
13075;SDS011;6604;52.484;13.330;2022-12-18T16:02:39;19.47;;;10.10;;
13075;SDS011;6604;52.484;13.330;2022-12-18T16:05:08;18.53;;;9.60;;
13075;SDS011;6604;52.484;13.330;2022-12-18T16:07:36;20.23;;;10.03;;
13075;SDS011;6604;52.484;13.330;2022-12-18T16:10:03;17.70;;;9.70;;
13075;SDS011;6604;52.484;13.330;2022-12-18T16:12:29;19.83;;;10.10;;
13075;SDS011;6604;52.484;13.330;2022-12-18T16:14:56;17.03;;;8.43;;
13075;SDS011;6604;52.484;13.330;2022-12-18T16:17:22;16.03;;;9.30;;
13075;SDS011;6604;52.484;13.330;2022-12-18T16:19:50;17.37;;;8.90;;
13075;SDS011;6604;52.484;13.330;2022-12-18T16:22:20;18.43;;;9.50;;
13075;SDS011;6604;52.484;13.330;2022-12-18T16:24:47;20.40;;;9.23;;
13075;SDS011;6604;52.484;13.330;2022-12-18T16:27:13;15.07;;;8.47;;
13075;SDS011;6604;52.484;13.330;2022-12-18T16:29:40;19.10;;;9.63;;
13075;SDS011;6604;52.484;13.330;2022-12-18T16:32:08;17.37;;;9.67;;
13075;SDS011;6604;52.484;13.330;2022-12-18T16:34:37;17.07;;;9.00;;
13075;SDS011;6604;52.484;13.330;2022-12-18T16:37:06;18.07;;;9.13;;
13075;SDS011;6604;52.484;13.330;2022-12-18T16:39:32;20.30;;;9.20;;
13075;SDS011;6604;52.484;13.330;2022-12-18T16:41:59;20.83;;;9.90;;
13075;SDS011;6604;52.484;13.330;2022-12-18T16:44:26;18.57;;;9.47;;
13075;SDS011;6604;52.484;13.330;2022-12-18T16:46:55;21.63;;;9.47;;
13075;SDS011;6604;52.484;13.330;2022-12-18T16:49:26;18.53;;;8.90;;
13075;SDS011;6604;52.484;13.330;2022-12-18T16:51:53;18.33;;;9.10;;
13075;SDS011;6604;52.484;13.330;2022-12-18T16:54:22;17.40;;;9.10;;
13075;SDS011;6604;52.484;13.330;2022-12-18T16:56:49;19.03;;;9.67;;
13075;SDS011;6604;52.484;13.330;2022-12-18T16:59:16;21.30;;;9.20;;
13075;SDS011;6604;52.484;13.330;2022-12-18T17:01:42;17.37;;;9.30;;
13075;SDS011;6604;52.484;13.330;2022-12-18T17:04:09;21.83;;;10.03;;
13075;SDS011;6604;52.484;13.330;2022-12-18T17:06:38;19.70;;;9.23;;
13075;SDS011;6604;52.484;13.330;2022-12-18T17:09:05;20.00;;;9.27;;
13075;SDS011;6604;52.484;13.330;2022-12-18T17:11:34;21.73;;;9.70;;
13075;SDS011;6604;52.484;13.330;2022-12-18T17:14:05;23.33;;;10.63;;
13075;SDS011;6604;52.484;13.330;2022-12-18T17:16:31;20.53;;;10.10;;
13075;SDS011;6604;52.484;13.330;2022-12-18T17:18:58;20.67;;;10.27;;
13075;SDS011;6604;52.484;13.330;2022-12-18T17:21:24;21.83;;;10.00;;
13075;SDS011;6604;52.484;13.330;2022-12-18T17:23:51;23.70;;;10.60;;
13075;SDS011;6604;52.484;13.330;2022-12-18T17:26:17;18.87;;;10.23;;
13075;SDS011;6604;52.484;13.330;2022-12-18T17:28:45;18.60;;;9.93;;
13075;SDS011;6604;52.484;13.330;2022-12-18T17:31:12;25.70;;;10.37;;
13075;SDS011;6604;52.484;13.330;2022-12-18T17:33:40;23.87;;;10.87;;
13075;SDS011;6604;52.484;13.330;2022-12-18T17:36:06;23.27;;;10.53;;
13075;SDS011;6604;52.484;13.330;2022-12-18T17:38:33;22.07;;;9.93;;
13075;SDS011;6604;52.484;13.330;2022-12-18T17:41:00;23.90;;;10.37;;
13075;SDS011;6604;52.484;13.330;2022-12-18T17:43:27;20.63;;;10.70;;
13075;SDS011;6604;52.484;13.330;2022-12-18T17:45:54;20.10;;;10.00;;
13075;SDS011;6604;52.484;13.330;2022-12-18T17:48:21;22.73;;;11.17;;
13075;SDS011;6604;52.484;13.330;2022-12-18T17:50:48;22.03;;;10.83;;
13075;SDS011;6604;52.484;13.330;2022-12-18T17:53:15;22.73;;;10.63;;
13075;SDS011;6604;52.484;13.330;2022-12-18T17:55:41;24.43;;;10.70;;
13075;SDS011;6604;52.484;13.330;2022-12-18T17:58:08;24.40;;;11.73;;
13075;SDS011;6604;52.484;13.330;2022-12-18T18:00:35;24.40;;;10.27;;
13075;SDS011;6604;52.484;13.330;2022-12-18T18:03:05;24.30;;;11.70;;
13075;SDS011;6604;52.484;13.330;2022-12-18T18:05:31;28.37;;;11.40;;
13075;SDS011;6604;52.484;13.330;2022-12-18T18:07:58;26.87;;;11.57;;
13075;SDS011;6604;52.484;13.330;2022-12-18T18:10:27;23.53;;;11.10;;
13075;SDS011;6604;52.484;13.330;2022-12-18T18:12:54;21.60;;;11.00;;
13075;SDS011;6604;52.484;13.330;2022-12-18T18:15:38;24.30;;;10.63;;
13075;SDS011;6604;52.484;13.330;2022-12-18T18:21:08;26.00;;;12.03;;
13075;SDS011;6604;52.484;13.330;2022-12-18T18:23:35;27.70;;;11.40;;
13075;SDS011;6604;52.484;13.330;2022-12-18T18:26:02;24.30;;;11.93;;
13075;SDS011;6604;52.484;13.330;2022-12-18T18:28:28;26.70;;;12.17;;
13075;SDS011;6604;52.484;13.330;2022-12-18T18:30:55;26.73;;;11.43;;
13075;SDS011;6604;52.484;13.330;2022-12-18T18:33:21;24.27;;;11.10;;
13075;SDS011;6604;52.484;13.330;2022-12-18T18:35:48;24.67;;;12.13;;
13075;SDS011;6604;52.484;13.330;2022-12-18T18:38:16;26.50;;;11.70;;
13075;SDS011;6604;52.484;13.330;2022-12-18T18:40:43;30.47;;;12.60;;
13075;SDS011;6604;52.484;13.330;2022-12-18T18:43:10;23.70;;;11.80;;
13075;SDS011;6604;52.484;13.330;2022-12-18T18:45:36;30.33;;;13.13;;
13075;SDS011;6604;52.484;13.330;2022-12-18T18:48:03;24.00;;;12.47;;
13075;SDS011;6604;52.484;13.330;2022-12-18T18:50:30;29.73;;;11.67;;
13075;SDS011;6604;52.484;13.330;2022-12-18T18:52:56;24.40;;;11.03;;
13075;SDS011;6604;52.484;13.330;2022-12-18T18:55:24;25.70;;;11.73;;
13075;SDS011;6604;52.484;13.330;2022-12-18T18:57:51;27.03;;;11.67;;
13075;SDS011;6604;52.484;13.330;2022-12-18T19:00:17;28.80;;;12.13;;
13075;SDS011;6604;52.484;13.330;2022-12-18T19:02:44;26.83;;;12.40;;
13075;SDS011;6604;52.484;13.330;2022-12-18T19:05:10;30.67;;;12.27;;
13075;SDS011;6604;52.484;13.330;2022-12-18T19:07:37;28.90;;;13.30;;
13075;SDS011;6604;52.484;13.330;2022-12-18T19:10:04;30.07;;;13.67;;
13075;SDS011;6604;52.484;13.330;2022-12-18T19:12:32;30.13;;;12.40;;
13075;SDS011;6604;52.484;13.330;2022-12-18T19:15:16;23.60;;;11.80;;
13075;SDS011;6604;52.484;13.330;2022-12-18T19:17:42;28.30;;;12.67;;
13075;SDS011;6604;52.484;13.330;2022-12-18T19:20:09;32.03;;;13.47;;
13075;SDS011;6604;52.484;13.330;2022-12-18T19:22:36;28.03;;;11.33;;
13075;SDS011;6604;52.484;13.330;2022-12-18T19:25:02;32.53;;;12.43;;
13075;SDS011;6604;52.484;13.330;2022-12-18T19:27:29;33.27;;;13.17;;
13075;SDS011;6604;52.484;13.330;2022-12-18T19:29:57;28.33;;;12.10;;
13075;SDS011;6604;52.484;13.330;2022-12-18T19:32:23;32.90;;;12.73;;
13075;SDS011;6604;52.484;13.330;2022-12-18T19:34:51;28.23;;;13.23;;
13075;SDS011;6604;52.484;13.330;2022-12-18T19:37:18;25.90;;;11.47;;
13075;SDS011;6604;52.484;13.330;2022-12-18T19:39:44;29.37;;;13.20;;
13075;SDS011;6604;52.484;13.330;2022-12-18T19:42:11;27.87;;;12.33;;
13075;SDS011;6604;52.484;13.330;2022-12-18T19:44:37;23.03;;;11.83;;
13075;SDS011;6604;52.484;13.330;2022-12-18T19:47:05;26.27;;;11.40;;
13075;SDS011;6604;52.484;13.330;2022-12-18T19:49:31;26.33;;;13.07;;
13075;SDS011;6604;52.484;13.330;2022-12-18T19:51:58;28.37;;;12.40;;
13075;SDS011;6604;52.484;13.330;2022-12-18T19:54:24;28.43;;;12.77;;
13075;SDS011;6604;52.484;13.330;2022-12-18T19:56:51;28.70;;;12.03;;
13075;SDS011;6604;52.484;13.330;2022-12-18T19:59:17;25.67;;;12.30;;
13075;SDS011;6604;52.484;13.330;2022-12-18T20:01:44;32.13;;;12.80;;
13075;SDS011;6604;52.484;13.330;2022-12-18T20:04:12;31.40;;;11.93;;
13075;SDS011;6604;52.484;13.330;2022-12-18T20:06:44;32.17;;;12.43;;
13075;SDS011;6604;52.484;13.330;2022-12-18T20:09:11;26.03;;;11.37;;
13075;SDS011;6604;52.484;13.330;2022-12-18T20:11:37;29.23;;;12.37;;
13075;SDS011;6604;52.484;13.330;2022-12-18T20:14:04;28.93;;;12.27;;
13075;SDS011;6604;52.484;13.330;2022-12-18T20:16:31;28.87;;;11.93;;
13075;SDS011;6604;52.484;13.330;2022-12-18T20:18:57;23.07;;;11.07;;
13075;SDS011;6604;52.484;13.330;2022-12-18T20:21:25;32.83;;;12.47;;
13075;SDS011;6604;52.484;13.330;2022-12-18T20:23:51;32.90;;;13.37;;
13075;SDS011;6604;52.484;13.330;2022-12-18T20:26:18;30.40;;;11.73;;
13075;SDS011;6604;52.484;13.330;2022-12-18T20:28:45;32.37;;;12.83;;
13075;SDS011;6604;52.484;13.330;2022-12-18T20:31:11;23.50;;;10.90;;
13075;SDS011;6604;52.484;13.330;2022-12-18T20:33:38;33.13;;;11.60;;
13075;SDS011;6604;52.484;13.330;2022-12-18T20:36:11;28.03;;;11.40;;
13075;SDS011;6604;52.484;13.330;2022-12-18T20:38:40;24.37;;;11.47;;
13075;SDS011;6604;52.484;13.330;2022-12-18T20:41:07;28.03;;;12.43;;
13075;SDS011;6604;52.484;13.330;2022-12-18T20:43:34;28.80;;;12.70;;
13075;SDS011;6604;52.484;13.330;2022-12-18T20:46:01;24.30;;;11.73;;
13075;SDS011;6604;52.484;13.330;2022-12-18T20:48:28;27.60;;;11.80;;
13075;SDS011;6604;52.484;13.330;2022-12-18T20:50:58;25.20;;;10.97;;
13075;SDS011;6604;52.484;13.330;2022-12-18T20:53:24;27.73;;;11.60;;
13075;SDS011;6604;52.484;13.330;2022-12-18T20:55:52;30.00;;;12.17;;
13075;SDS011;6604;52.484;13.330;2022-12-18T20:58:19;26.83;;;12.47;;
13075;SDS011;6604;52.484;13.330;2022-12-18T21:00:45;29.57;;;11.70;;
13075;SDS011;6604;52.484;13.330;2022-12-18T21:03:12;29.53;;;12.73;;
13075;SDS011;6604;52.484;13.330;2022-12-18T21:05:38;29.33;;;12.60;;
13075;SDS011;6604;52.484;13.330;2022-12-18T21:08:05;31.67;;;12.17;;
13075;SDS011;6604;52.484;13.330;2022-12-18T21:10:31;28.60;;;12.27;;
13075;SDS011;6604;52.484;13.330;2022-12-18T21:12:59;26.70;;;10.80;;
13075;SDS011;6604;52.484;13.330;2022-12-18T21:15:25;23.13;;;10.03;;
13075;SDS011;6604;52.484;13.330;2022-12-18T21:17:51;24.97;;;11.20;;
13075;SDS011;6604;52.484;13.330;2022-12-18T21:20:18;30.37;;;11.97;;
13075;SDS011;6604;52.484;13.330;2022-12-18T21:22:44;31.50;;;12.07;;
13075;SDS011;6604;52.484;13.330;2022-12-18T21:25:11;26.93;;;10.77;;
13075;SDS011;6604;52.484;13.330;2022-12-18T21:27:37;23.27;;;10.73;;
13075;SDS011;6604;52.484;13.330;2022-12-18T21:30:06;28.00;;;11.57;;
13075;SDS011;6604;52.484;13.330;2022-12-18T21:32:33;27.77;;;11.20;;
13075;SDS011;6604;52.484;13.330;2022-12-18T21:35:00;24.60;;;11.83;;
13075;SDS011;6604;52.484;13.330;2022-12-18T21:37:26;25.93;;;11.57;;
13075;SDS011;6604;52.484;13.330;2022-12-18T21:39:53;25.87;;;11.37;;
13075;SDS011;6604;52.484;13.330;2022-12-18T21:42:19;28.13;;;11.97;;
13075;SDS011;6604;52.484;13.330;2022-12-18T21:45:03;28.97;;;11.70;;
13075;SDS011;6604;52.484;13.330;2022-12-18T21:47:32;27.33;;;10.70;;
13075;SDS011;6604;52.484;13.330;2022-12-18T21:49:58;22.83;;;9.93;;
13075;SDS011;6604;52.484;13.330;2022-12-18T21:52:25;27.30;;;11.93;;
13075;SDS011;6604;52.484;13.330;2022-12-18T21:54:51;27.30;;;11.20;;
13075;SDS011;6604;52.484;13.330;2022-12-18T21:57:18;25.67;;;11.70;;
13075;SDS011;6604;52.484;13.330;2022-12-18T21:59:44;24.33;;;12.00;;
13075;SDS011;6604;52.484;13.330;2022-12-18T22:02:12;25.67;;;11.53;;
13075;SDS011;6604;52.484;13.330;2022-12-18T22:04:40;31.23;;;12.03;;
13075;SDS011;6604;52.484;13.330;2022-12-18T22:07:07;31.73;;;10.77;;
13075;SDS011;6604;52.484;13.330;2022-12-18T22:09:34;24.17;;;11.27;;
13075;SDS011;6604;52.484;13.330;2022-12-18T22:12:01;23.23;;;10.37;;
13075;SDS011;6604;52.484;13.330;2022-12-18T22:14:27;25.73;;;11.37;;
13075;SDS011;6604;52.484;13.330;2022-12-18T22:16:54;25.77;;;10.97;;
13075;SDS011;6604;52.484;13.330;2022-12-18T22:19:21;22.00;;;10.23;;
13075;SDS011;6604;52.484;13.330;2022-12-18T22:21:51;28.67;;;10.57;;
13075;SDS011;6604;52.484;13.330;2022-12-18T22:24:18;24.70;;;10.60;;
13075;SDS011;6604;52.484;13.330;2022-12-18T22:26:45;24.83;;;10.90;;
13075;SDS011;6604;52.484;13.330;2022-12-18T22:29:13;21.90;;;9.40;;
